createdAt,value
2018-04-19T00:02:09.198Z,3.80
2018-04-19T00:04:36.180Z,4.70
2018-04-19T00:07:02.458Z,4.30
2018-04-19T00:09:28.741Z,5.50
2018-04-19T00:11:55.005Z,5.23
2018-04-19T00:14:21.344Z,4.33
2018-04-19T00:16:48.379Z,4.90
2018-04-19T00:19:14.675Z,4.33
2018-04-19T00:21:40.953Z,4.90
2018-04-19T00:24:07.215Z,5.50
2018-04-19T00:26:33.542Z,4.10
2018-04-19T00:29:00.583Z,4.13
2018-04-19T00:31:27.623Z,4.40
2018-04-19T00:33:53.894Z,4.20
2018-04-19T00:36:20.173Z,4.60
2018-04-19T00:38:46.493Z,3.70
2018-04-19T00:41:12.786Z,4.40
2018-04-19T00:43:39.060Z,4.80
2018-04-19T00:46:05.358Z,5.03
2018-04-19T00:48:31.642Z,5.50
2018-04-19T00:50:58.685Z,4.50
2018-04-19T00:53:25.707Z,4.43
2018-04-19T00:55:51.978Z,4.93
2018-04-19T00:58:18.267Z,6.37
2018-04-19T01:00:44.541Z,4.23
2018-04-19T01:03:10.818Z,4.40
2018-04-19T01:05:37.080Z,5.47
2018-04-19T01:08:04.079Z,4.17
2018-04-19T01:10:30.370Z,4.57
2018-04-19T01:12:57.372Z,4.57
2018-04-19T01:15:23.657Z,3.93
2018-04-19T01:17:49.933Z,5.17
2018-04-19T01:20:16.276Z,5.10
2018-04-19T01:22:42.643Z,3.70
2018-04-19T01:25:08.951Z,4.53
2018-04-19T01:27:36.005Z,3.77
2018-04-19T01:30:03.041Z,4.50
2018-04-19T01:32:30.305Z,4.60
2018-04-19T01:34:57.400Z,4.90
2018-04-19T01:37:23.722Z,4.80
2018-04-19T01:39:50.194Z,4.00
2018-04-19T01:42:16.476Z,4.53
2018-04-19T01:44:42.794Z,4.40
2018-04-19T01:47:09.115Z,5.23
2018-04-19T01:49:36.295Z,4.50
2018-04-19T01:52:02.630Z,4.80
2018-04-19T01:54:28.915Z,5.83
2018-04-19T01:56:55.214Z,4.73
2018-04-19T01:59:21.491Z,5.80
2018-04-19T02:01:47.796Z,5.90
2018-04-19T02:04:14.138Z,4.50
2018-04-19T02:06:40.474Z,5.23
2018-04-19T02:09:07.537Z,5.97
2018-04-19T02:11:34.538Z,5.60
2018-04-19T02:14:00.838Z,6.50
2018-04-19T02:16:27.156Z,5.57
2018-04-19T02:18:53.451Z,5.07
2018-04-19T02:21:20.019Z,5.80
2018-04-19T02:23:46.299Z,4.70
2018-04-19T02:26:14.059Z,5.07
2018-04-19T02:28:40.364Z,4.80
2018-04-19T02:31:06.635Z,5.10
2018-04-19T02:33:32.927Z,4.77
2018-04-19T02:35:59.205Z,4.70
2018-04-19T02:38:25.520Z,5.73
2018-04-19T02:40:51.802Z,5.63
2018-04-19T02:43:18.111Z,4.67
2018-04-19T02:45:44.402Z,5.20
2018-04-19T02:48:10.653Z,5.10
2018-04-19T02:50:36.920Z,4.53
2018-04-19T02:53:03.930Z,4.57
2018-04-19T02:55:30.186Z,4.93
2018-04-19T02:57:57.323Z,5.87
2018-04-19T03:00:24.339Z,6.10
2018-04-19T03:02:51.415Z,4.23
2018-04-19T03:05:18.448Z,5.07
2018-04-19T03:07:44.715Z,4.87
2018-04-19T03:10:11.010Z,4.70
2018-04-19T03:12:37.274Z,4.57
2018-04-19T03:15:03.592Z,5.30
2018-04-19T03:17:29.902Z,3.90
2018-04-19T03:19:56.171Z,4.43
2018-04-19T03:22:22.454Z,4.50
2018-04-19T03:24:48.759Z,4.70
2018-04-19T03:27:15.042Z,5.27
2018-04-19T03:29:41.339Z,4.40
2018-04-19T03:32:07.606Z,5.30
2018-04-19T03:34:34.640Z,5.20
2018-04-19T03:37:00.902Z,4.33
2018-04-19T03:39:27.192Z,5.30
2018-04-19T03:41:53.477Z,5.70
2018-04-19T03:44:19.746Z,4.93
2018-04-19T03:46:46.026Z,4.10
2018-04-19T03:49:12.315Z,4.67
2018-04-19T03:51:38.607Z,4.70
2018-04-19T03:54:04.897Z,4.90
2018-04-19T03:56:32.031Z,4.60
2018-04-19T03:58:59.063Z,4.53
2018-04-19T04:01:25.338Z,4.47
2018-04-19T04:03:51.609Z,4.70
2018-04-19T04:06:17.891Z,5.37
2018-04-19T04:08:44.181Z,5.73
2018-04-19T04:11:10.441Z,4.60
2018-04-19T04:13:36.751Z,4.33
2018-04-19T04:16:03.018Z,5.20
2018-04-19T04:18:41.471Z,4.40
2018-04-19T04:21:16.902Z,5.37
2018-04-19T04:23:52.302Z,4.73
2018-04-19T04:26:18.644Z,5.23
2018-04-19T04:28:44.935Z,4.97
2018-04-19T04:31:11.233Z,5.20
2018-04-19T04:33:37.543Z,4.83
2018-04-19T04:36:03.839Z,4.87
2018-04-19T04:38:30.885Z,4.90
2018-04-19T04:40:57.149Z,5.13
2018-04-19T04:43:23.456Z,4.83
2018-04-19T04:45:50.469Z,5.63
2018-04-19T04:48:16.717Z,5.50
2018-04-19T04:50:43.034Z,6.47
2018-04-19T04:53:09.309Z,4.73
2018-04-19T04:55:35.596Z,5.40
2018-04-19T04:58:01.915Z,5.93
2018-04-19T05:00:28.177Z,5.93
2018-04-19T05:02:55.189Z,5.47
2018-04-19T05:05:28.436Z,5.60
2018-04-19T05:07:54.762Z,5.87
2018-04-19T05:10:21.030Z,5.30
2018-04-19T05:12:47.303Z,6.23
2018-04-19T05:15:14.327Z,4.60
2018-04-19T05:17:40.583Z,5.70
2018-04-19T05:20:07.602Z,5.30
2018-04-19T05:22:33.874Z,5.40
2018-04-19T05:25:00.147Z,5.63
2018-04-19T05:27:26.446Z,4.93
2018-04-19T05:29:52.729Z,5.90
2018-04-19T05:32:19.029Z,6.63
2018-04-19T05:34:45.322Z,5.37
2018-04-19T05:37:11.645Z,5.37
2018-04-19T05:39:38.730Z,5.63
2018-04-19T05:42:05.048Z,5.07
2018-04-19T05:44:31.355Z,5.10
2018-04-19T05:46:57.648Z,5.10
2018-04-19T05:49:23.950Z,4.83
2018-04-19T05:51:50.244Z,5.47
2018-04-19T05:54:17.255Z,5.70
2018-04-19T05:56:43.560Z,6.40
2018-04-19T05:59:10.666Z,5.87
2018-04-19T06:01:37.691Z,5.90
2018-04-19T06:04:03.998Z,5.90
2018-04-19T06:06:30.286Z,5.90
2018-04-19T06:08:56.595Z,5.50
2018-04-19T06:11:22.891Z,5.47
2018-04-19T06:13:49.183Z,5.00
2018-04-19T06:16:15.513Z,5.50
2018-04-19T06:18:41.803Z,5.90
2018-04-19T06:21:08.095Z,5.40
2018-04-19T06:23:34.398Z,5.87
2018-04-19T06:26:00.722Z,5.00
2018-04-19T06:28:27.027Z,5.80
2018-04-19T06:30:53.303Z,5.10
2018-04-19T06:33:19.663Z,4.90
2018-04-19T06:35:45.964Z,7.13
2018-04-19T06:38:12.260Z,5.67
2018-04-19T06:40:39.355Z,4.73
2018-04-19T06:43:05.646Z,5.10
2018-04-19T06:45:32.736Z,5.23
2018-04-19T06:47:59.020Z,4.50
2018-04-19T06:50:26.065Z,5.63
2018-04-19T06:52:52.349Z,4.60
2018-04-19T06:55:18.633Z,4.77
2018-04-19T06:57:45.679Z,5.33
2018-04-19T07:00:12.750Z,5.40
2018-04-19T07:02:39.023Z,5.23
2018-04-19T07:05:05.297Z,4.80
2018-04-19T07:07:32.311Z,5.70
2018-04-19T07:09:58.702Z,4.50
2018-04-19T07:12:25.080Z,6.20
2018-04-19T07:14:51.467Z,5.07
2018-04-19T07:17:17.733Z,4.67
2018-04-19T07:19:43.983Z,4.90
2018-04-19T07:22:10.252Z,4.90
2018-04-19T07:24:36.546Z,5.00
2018-04-19T07:27:02.797Z,5.60
2018-04-19T07:29:29.846Z,4.80
2018-04-19T07:31:56.842Z,4.77
2018-04-19T07:34:23.121Z,5.10
2018-04-19T07:36:49.421Z,4.37
2018-04-19T07:39:15.738Z,5.10
2018-04-19T07:41:42.010Z,4.07
2018-04-19T07:44:09.531Z,4.60
2018-04-19T07:46:35.811Z,4.57
2018-04-19T07:49:02.108Z,6.07
2018-04-19T07:51:28.362Z,4.80
2018-04-19T07:53:54.691Z,4.40
2018-04-19T07:56:21.703Z,4.07
2018-04-19T07:58:47.979Z,4.33
2018-04-19T08:01:14.290Z,4.10
2018-04-19T08:03:41.420Z,4.03
2018-04-19T08:06:07.790Z,4.10
2018-04-19T08:08:34.825Z,3.93
2018-04-19T08:11:01.850Z,4.83
2018-04-19T08:13:28.149Z,4.33
2018-04-19T08:15:54.442Z,3.77
2018-04-19T08:18:20.733Z,3.90
2018-04-19T08:20:47.038Z,5.10
2018-04-19T08:23:13.329Z,4.67
2018-04-19T08:25:39.614Z,4.93
2018-04-19T08:28:05.910Z,5.07
2018-04-19T08:30:32.206Z,4.13
2018-04-19T08:32:59.238Z,4.23
2018-04-19T08:35:25.560Z,5.07
2018-04-19T08:37:51.829Z,3.90
2018-04-19T08:40:18.151Z,4.13
2018-04-19T08:42:44.442Z,4.50
2018-04-19T08:45:10.718Z,4.43
2018-04-19T08:47:36.998Z,4.47
2018-04-19T08:50:03.298Z,3.63
2018-04-19T08:52:29.578Z,4.43
2018-04-19T08:54:55.872Z,4.37
2018-04-19T08:57:22.132Z,4.03
2018-04-19T08:59:48.437Z,4.20
2018-04-19T09:02:14.732Z,4.87
2018-04-19T09:04:41.005Z,4.33
2018-04-19T09:07:07.371Z,4.47
2018-04-19T09:09:34.401Z,4.37
2018-04-19T09:12:00.692Z,4.10
2018-04-19T09:14:27.010Z,5.20
2018-04-19T09:16:53.293Z,5.20
2018-04-19T09:19:19.562Z,5.20
2018-04-19T09:21:45.853Z,4.30
2018-04-19T09:24:12.134Z,5.13
2018-04-19T09:26:38.397Z,3.93
2018-04-19T09:29:04.677Z,5.33
2018-04-19T09:31:31.746Z,5.30
2018-04-19T09:33:58.013Z,4.13
2018-04-19T09:36:24.318Z,4.60
2018-04-19T09:38:50.671Z,3.87
2018-04-19T09:41:16.938Z,4.67
2018-04-19T09:43:43.975Z,4.40
2018-04-19T09:46:11.005Z,3.70
2018-04-19T09:48:37.315Z,3.90
2018-04-19T09:51:03.602Z,4.50
2018-04-19T09:53:29.970Z,4.50
2018-04-19T09:55:56.286Z,4.10
2018-04-19T09:58:22.584Z,4.30
2018-04-19T10:00:49.634Z,4.00
2018-04-19T10:03:17.972Z,4.00
2018-04-19T10:05:46.250Z,4.30
2018-04-19T10:08:12.698Z,5.00
2018-04-19T10:10:39.002Z,4.97
2018-04-19T10:13:05.247Z,4.20
2018-04-19T10:15:31.988Z,5.17
2018-04-19T10:17:58.272Z,4.60
2018-04-19T10:20:24.542Z,4.03
2018-04-19T10:22:50.873Z,5.20
2018-04-19T10:25:17.942Z,4.17
2018-04-19T10:27:44.380Z,4.80
2018-04-19T10:30:10.670Z,4.07
2018-04-19T10:32:36.960Z,3.80
2018-04-19T10:35:03.966Z,4.63
2018-04-19T10:37:30.235Z,3.07
2018-04-19T10:39:56.588Z,4.30
2018-04-19T10:42:22.914Z,4.57
2018-04-19T10:44:49.251Z,4.00
2018-04-19T10:47:16.283Z,4.37
2018-04-19T10:49:42.590Z,4.43
2018-04-19T10:52:09.659Z,3.60
2018-04-19T10:54:35.946Z,4.47
2018-04-19T10:57:02.251Z,4.43
2018-04-19T10:59:28.523Z,3.97
2018-04-19T11:01:54.820Z,3.57
2018-04-19T11:04:21.132Z,3.47
2018-04-19T11:06:47.515Z,3.40
2018-04-19T11:09:13.833Z,4.53
2018-04-19T11:11:40.129Z,4.00
2018-04-19T11:14:06.520Z,4.73
2018-04-19T11:16:32.818Z,3.40
2018-04-19T11:18:59.316Z,3.73
2018-04-19T11:21:25.807Z,3.50
2018-04-19T11:23:52.095Z,3.57
2018-04-19T11:26:18.386Z,3.50
2018-04-19T11:28:45.423Z,3.10
2018-04-19T11:31:12.454Z,3.90
2018-04-19T11:33:38.754Z,4.10
2018-04-19T11:36:05.047Z,3.37
2018-04-19T11:38:31.345Z,3.90
2018-04-19T11:40:57.642Z,3.20
2018-04-19T11:43:23.922Z,3.37
2018-04-19T11:45:50.254Z,3.17
2018-04-19T11:48:17.332Z,3.33
2018-04-19T11:50:43.608Z,3.50
2018-04-19T11:53:09.935Z,4.53
2018-04-19T11:55:37.233Z,3.87
2018-04-19T11:58:03.547Z,3.00
2018-04-19T12:00:30.578Z,3.63
2018-04-19T12:02:56.893Z,3.40
2018-04-19T12:05:23.163Z,3.57
2018-04-19T12:07:49.449Z,3.03
2018-04-19T12:10:15.763Z,3.63
2018-04-19T12:12:42.113Z,3.23
2018-04-19T12:15:08.402Z,2.87
2018-04-19T12:17:34.690Z,3.50
2018-04-19T12:20:01.107Z,3.50
2018-04-19T12:22:27.386Z,3.73
2018-04-19T12:24:54.407Z,3.10
2018-04-19T12:27:20.984Z,3.17
2018-04-19T12:29:47.299Z,3.27
2018-04-19T12:32:13.650Z,3.60
2018-04-19T12:34:39.990Z,3.10
2018-04-19T12:37:06.249Z,2.50
2018-04-19T12:39:32.543Z,3.03
2018-04-19T12:41:59.515Z,3.07
2018-04-19T12:44:25.840Z,2.70
2018-04-19T12:46:52.125Z,3.77
2018-04-19T12:49:19.160Z,3.60
2018-04-19T12:51:46.157Z,2.90
2018-04-19T12:54:12.487Z,3.20
2018-04-19T12:56:38.756Z,2.80
2018-04-19T12:59:05.028Z,2.93
2018-04-19T13:01:31.322Z,2.70
2018-04-19T13:03:58.349Z,2.50
2018-04-19T13:06:24.641Z,2.97
2018-04-19T13:08:50.922Z,3.20
2018-04-19T13:11:17.236Z,2.47
2018-04-19T13:13:43.530Z,2.70
2018-04-19T13:16:09.809Z,3.00
2018-04-19T13:18:36.102Z,3.17
2018-04-19T13:21:02.393Z,3.10
2018-04-19T13:23:29.438Z,4.00
2018-04-19T13:25:56.534Z,3.17
2018-04-19T13:28:22.800Z,2.83
2018-04-19T13:30:49.095Z,2.40
2018-04-19T13:33:15.389Z,2.60
2018-04-19T13:35:41.711Z,3.10
2018-04-19T13:38:08.038Z,2.40
2018-04-19T13:40:35.117Z,3.10
2018-04-19T13:43:01.434Z,2.77
2018-04-19T13:45:27.739Z,3.07
2018-04-19T13:47:54.798Z,3.10
2018-04-19T13:50:21.093Z,3.30
2018-04-19T13:52:47.481Z,3.20
2018-04-19T13:55:14.602Z,3.10
2018-04-19T13:57:40.877Z,4.60
2018-04-19T14:00:07.207Z,3.37
2018-04-19T14:02:33.651Z,3.37
2018-04-19T14:04:59.969Z,3.23
2018-04-19T14:07:26.290Z,3.20
2018-04-19T14:09:52.647Z,3.57
2018-04-19T14:12:18.939Z,3.40
2018-04-19T14:14:45.246Z,3.23
2018-04-19T14:17:12.338Z,3.50
2018-04-19T14:19:38.769Z,2.97
2018-04-19T14:22:05.048Z,3.27
2018-04-19T14:24:31.356Z,2.60
2018-04-19T14:26:57.663Z,3.10
2018-04-19T14:29:23.978Z,3.13
2018-04-19T14:31:50.310Z,3.30
2018-04-19T14:34:16.618Z,3.13
2018-04-19T14:36:43.850Z,3.10
2018-04-19T14:39:10.128Z,3.50
2018-04-19T14:41:36.448Z,3.03
2018-04-19T14:44:02.832Z,3.13
2018-04-19T14:46:29.115Z,3.30
2018-04-19T14:48:55.477Z,2.93
2018-04-19T14:51:21.816Z,4.50
2018-04-19T14:53:48.078Z,2.90
2018-04-19T14:56:14.389Z,2.30
2018-04-19T14:58:40.647Z,3.60
2018-04-19T15:01:07.707Z,2.67
2018-04-19T15:03:33.986Z,4.00
2018-04-19T15:06:00.291Z,3.50
2018-04-19T15:08:26.614Z,3.13
2018-04-19T15:10:52.950Z,3.20
2018-04-19T15:13:20.227Z,2.60
2018-04-19T15:15:47.401Z,2.50
2018-04-19T15:18:13.738Z,2.80
2018-04-19T15:20:40.772Z,3.77
2018-04-19T15:23:07.124Z,2.83
2018-04-19T15:25:34.258Z,2.70
2018-04-19T15:28:00.618Z,2.70
2018-04-19T15:30:27.646Z,2.97
2018-04-19T15:32:54.682Z,3.13
2018-04-19T15:35:20.987Z,3.27
2018-04-19T15:37:47.328Z,2.97
2018-04-19T15:40:14.433Z,3.20
2018-04-19T15:42:40.763Z,2.70
2018-04-19T15:45:07.819Z,3.10
2018-04-19T15:47:34.093Z,2.77
2018-04-19T15:50:00.457Z,3.07
2018-04-19T15:52:27.551Z,3.10
2018-04-19T15:54:53.883Z,2.80
2018-04-19T15:57:20.218Z,2.97
2018-04-19T15:59:46.555Z,2.40
2018-04-19T16:02:13.003Z,3.77
2018-04-19T16:04:40.227Z,2.60
2018-04-19T16:07:06.594Z,4.33
2018-04-19T16:09:33.713Z,3.10
2018-04-19T16:12:00.104Z,3.53
2018-04-19T16:14:26.426Z,3.27
2018-04-19T16:16:53.495Z,3.73
2018-04-19T16:19:19.847Z,3.00
2018-04-19T16:21:46.189Z,2.97
2018-04-19T16:24:12.527Z,3.33
2018-04-19T16:26:38.855Z,3.70
2018-04-19T16:29:05.252Z,3.63
2018-04-19T16:31:31.570Z,3.20
2018-04-19T16:33:57.877Z,3.50
2018-04-19T16:36:24.946Z,3.70
2018-04-19T16:38:52.033Z,2.90
2018-04-19T16:41:18.358Z,4.03
2018-04-19T16:43:44.689Z,3.40
2018-04-19T16:46:11.036Z,3.03
2018-04-19T16:48:37.328Z,3.77
2018-04-19T16:51:03.641Z,4.67
2018-04-19T16:53:30.694Z,3.20
2018-04-19T16:55:57.084Z,3.90
2018-04-19T16:58:23.437Z,3.83
2018-04-19T17:00:49.759Z,3.30
2018-04-19T17:03:16.066Z,3.50
2018-04-19T17:05:42.490Z,2.87
2018-04-19T17:08:08.820Z,4.03
2018-04-19T17:10:35.111Z,4.00
2018-04-19T17:13:01.472Z,3.80
2018-04-19T17:15:27.783Z,3.77
2018-04-19T17:17:54.799Z,3.90
2018-04-19T17:20:21.091Z,3.60
2018-04-19T17:22:47.403Z,3.33
2018-04-19T17:25:13.740Z,4.13
2018-04-19T17:27:40.019Z,4.33
2018-04-19T17:30:06.315Z,3.30
2018-04-19T17:32:32.630Z,3.17
2018-04-19T17:34:58.954Z,3.60
2018-04-19T17:37:25.970Z,3.60
2018-04-19T17:39:52.322Z,3.57
2018-04-19T17:42:19.371Z,3.73
2018-04-19T17:44:45.651Z,4.37
2018-04-19T17:47:11.938Z,3.67
2018-04-19T17:49:38.226Z,5.13
2018-04-19T17:52:04.518Z,5.53
2018-04-19T17:54:30.814Z,5.30
2018-04-19T17:56:57.847Z,3.50
2018-04-19T17:59:24.968Z,4.33
2018-04-19T18:01:51.234Z,5.87
2018-04-19T18:04:18.273Z,4.47
2018-04-19T18:06:45.311Z,4.73
2018-04-19T18:09:11.610Z,6.90
2018-04-19T18:11:37.963Z,4.10
2018-04-19T18:14:04.293Z,5.20
2018-04-19T18:16:30.577Z,4.50
2018-04-19T18:18:56.942Z,4.37
2018-04-19T18:21:23.245Z,4.50
2018-04-19T18:23:49.605Z,3.77
2018-04-19T18:26:15.910Z,4.47
2018-04-19T18:28:42.212Z,5.20
2018-04-19T18:31:08.530Z,5.10
2018-04-19T18:33:35.567Z,4.53
2018-04-19T18:36:01.914Z,4.73
2018-04-19T18:38:28.958Z,5.20
2018-04-19T18:40:56.002Z,4.20
2018-04-19T18:43:23.069Z,4.50
2018-04-19T18:45:50.893Z,4.53
2018-04-19T18:48:17.492Z,4.93
2018-04-19T18:50:43.803Z,5.57
2018-04-19T18:53:10.920Z,4.73
2018-04-19T18:55:37.194Z,4.87
2018-04-19T18:58:03.498Z,5.60
2018-04-19T19:00:29.774Z,4.47
2018-04-19T19:02:56.082Z,5.60
2018-04-19T19:05:23.135Z,5.57
2018-04-19T19:07:49.486Z,4.87
2018-04-19T19:10:15.834Z,5.50
2018-04-19T19:12:42.146Z,6.10
2018-04-19T19:18:45.795Z,5.53
2018-04-19T19:21:12.878Z,5.50
2018-04-19T19:23:39.923Z,6.07
2018-04-19T19:26:06.324Z,5.93
2018-04-19T19:28:32.631Z,6.10
2018-04-19T19:30:58.923Z,5.60
2018-04-19T19:33:25.978Z,5.77
2018-04-19T19:35:53.044Z,5.27
2018-04-19T19:38:19.327Z,6.03
2018-04-19T19:40:45.895Z,5.57
2018-04-19T19:43:12.211Z,5.10
2018-04-19T19:45:39.274Z,4.90
2018-04-19T19:48:06.632Z,5.53
2018-04-19T19:50:32.971Z,5.80
2018-04-19T19:52:59.998Z,6.20
2018-04-19T19:55:27.097Z,6.00
2018-04-19T19:57:54.118Z,5.30
2018-04-19T20:00:20.414Z,6.00
2018-04-19T20:02:46.707Z,5.57
2018-04-19T20:05:13.140Z,5.67
2018-04-19T20:07:39.479Z,4.73
2018-04-19T20:10:05.804Z,4.83
2018-04-19T20:12:32.172Z,4.63
2018-04-19T20:14:58.550Z,4.47
2018-04-19T20:17:24.819Z,5.37
2018-04-19T20:19:51.155Z,5.80
2018-04-19T20:22:17.479Z,4.70
2018-04-19T20:24:43.829Z,4.87
2018-04-19T20:27:10.116Z,5.20
2018-04-19T20:29:36.402Z,5.17
2018-04-19T20:32:03.450Z,4.90
2018-04-19T20:34:30.512Z,4.90
2018-04-19T20:36:56.809Z,4.23
2018-04-19T20:39:23.068Z,5.30
2018-04-19T20:41:50.116Z,4.90
2018-04-19T20:44:17.174Z,5.33
2018-04-19T20:46:44.195Z,6.07
2018-04-19T20:49:10.590Z,5.80
2018-04-19T20:51:36.966Z,5.47
2018-04-19T20:54:04.020Z,6.23
2018-04-19T20:56:31.103Z,6.60
2018-04-19T20:58:57.532Z,6.07
2018-04-19T21:01:23.850Z,6.60
2018-04-19T21:03:50.302Z,6.10
2018-04-19T21:06:16.721Z,6.07
2018-04-19T21:08:43.076Z,5.10
2018-04-19T21:11:09.377Z,6.10
2018-04-19T21:13:35.673Z,5.73
2018-04-19T21:16:02.022Z,5.80
2018-04-19T21:18:28.327Z,5.73
2018-04-19T21:20:54.658Z,6.90
2018-04-19T21:23:21.746Z,7.10
2018-04-19T21:25:48.110Z,6.73
2018-04-19T21:28:14.447Z,8.20
2018-04-19T21:30:40.776Z,6.07
2018-04-19T21:33:07.149Z,6.40
2018-04-19T21:35:33.482Z,6.23
2018-04-19T21:38:00.539Z,5.50
2018-04-19T21:40:27.627Z,5.13
2018-04-19T21:42:53.929Z,5.07
2018-04-19T21:45:20.239Z,5.53
2018-04-19T21:47:47.286Z,5.63
2018-04-19T21:50:14.322Z,6.17
2018-04-19T21:52:40.754Z,5.60
2018-04-19T21:55:07.097Z,5.10
2018-04-19T21:57:34.165Z,5.23
2018-04-19T22:00:00.699Z,6.60
2018-04-19T22:02:27.242Z,4.60
2018-04-19T22:04:53.591Z,4.70
2018-04-19T22:07:19.888Z,5.67
2018-04-19T22:09:46.225Z,4.53
2018-04-19T22:12:13.237Z,4.43
2018-04-19T22:14:39.608Z,4.03
2018-04-19T22:17:06.010Z,3.80
2018-04-19T22:19:32.550Z,3.80
2018-04-19T22:21:59.607Z,4.60
2018-04-19T22:24:26.681Z,4.60
2018-04-19T22:26:53.094Z,4.50
2018-04-19T22:29:20.106Z,5.00
2018-04-19T22:31:46.513Z,5.00
2018-04-19T22:34:12.814Z,5.63
2018-04-19T22:36:39.132Z,4.70
2018-04-19T22:39:06.150Z,5.10
2018-04-19T22:41:32.470Z,3.83
2018-04-19T22:43:58.748Z,4.10
2018-04-19T22:46:25.828Z,4.83
2018-04-19T22:48:52.134Z,5.50
2018-04-19T22:51:18.514Z,4.47
2018-04-19T22:53:44.809Z,4.73
2018-04-19T22:56:11.113Z,4.33
2018-04-19T22:58:38.144Z,4.70
2018-04-19T23:01:04.423Z,3.77
2018-04-19T23:03:30.712Z,3.93
2018-04-19T23:05:57.035Z,4.33
2018-04-19T23:08:24.096Z,4.77
2018-04-19T23:10:51.154Z,4.73
2018-04-19T23:13:18.186Z,3.60
2018-04-19T23:15:45.210Z,3.70
2018-04-19T23:18:11.474Z,4.93
2018-04-19T23:20:38.498Z,3.87
2018-04-19T23:23:05.515Z,4.10
2018-04-19T23:25:31.798Z,4.20
2018-04-19T23:27:58.162Z,3.77
2018-04-19T23:30:24.529Z,4.17
2018-04-19T23:32:50.823Z,3.90
2018-04-19T23:35:17.082Z,3.80
2018-04-19T23:37:43.348Z,3.87
2018-04-19T23:40:10.403Z,4.20
2018-04-19T23:42:36.742Z,3.93
2018-04-19T23:45:03.078Z,4.43
2018-04-19T23:47:30.131Z,5.10
2018-04-19T23:49:56.390Z,3.93
2018-04-19T23:52:22.683Z,4.37
2018-04-19T23:54:48.957Z,5.07
2018-04-19T23:57:15.292Z,4.20
2018-04-19T23:59:41.580Z,3.90
